createdAt,value
2018-07-11T00:00:26.342Z,13.90
2018-07-11T00:01:31.920Z,13.90
2018-07-11T00:02:37.394Z,13.90
2018-07-11T00:03:45.585Z,13.90
2018-07-11T00:04:51.214Z,13.90
2018-07-11T00:05:56.781Z,13.90
2018-07-11T00:07:02.313Z,13.80
2018-07-11T00:08:07.797Z,13.80
2018-07-11T00:09:13.258Z,13.80
2018-07-11T00:10:19.600Z,13.80
2018-07-11T00:11:25.018Z,13.80
2018-07-11T00:12:30.485Z,13.90
2018-07-11T00:13:35.917Z,13.80
2018-07-11T00:14:41.385Z,13.80
2018-07-11T00:15:46.877Z,13.80
2018-07-11T00:17:24.026Z,13.80
2018-07-11T00:18:30.027Z,13.70
2018-07-11T00:19:36.664Z,13.70
2018-07-11T00:20:42.146Z,13.60
2018-07-11T00:21:47.852Z,13.60
2018-07-11T00:22:53.407Z,13.50
2018-07-11T00:23:59.017Z,13.50
2018-07-11T00:25:04.599Z,13.50
2018-07-11T00:26:11.141Z,13.50
2018-07-11T00:27:16.698Z,13.40
2018-07-11T00:28:22.306Z,13.40
2018-07-11T00:29:27.969Z,13.40
2018-07-11T00:30:33.487Z,13.40
2018-07-11T00:31:39.021Z,13.40
2018-07-11T00:32:44.508Z,13.50
2018-07-11T00:33:50.057Z,13.40
2018-07-11T00:34:55.624Z,13.40
2018-07-11T00:36:01.193Z,13.50
2018-07-11T00:37:07.121Z,13.40
2018-07-11T00:38:12.662Z,13.40
2018-07-11T00:39:18.276Z,13.30
2018-07-11T00:40:23.835Z,13.30
2018-07-11T00:41:29.423Z,13.30
2018-07-11T00:42:35.021Z,13.30
2018-07-11T00:43:40.530Z,13.30
2018-07-11T00:44:46.101Z,13.30
2018-07-11T00:45:53.348Z,13.30
2018-07-11T00:46:58.930Z,13.30
2018-07-11T00:48:04.879Z,13.20
2018-07-11T00:49:10.523Z,13.20
2018-07-11T00:50:16.090Z,13.20
2018-07-11T00:51:21.650Z,13.20
2018-07-11T00:52:27.296Z,13.20
2018-07-11T00:53:35.977Z,13.20
2018-07-11T00:54:41.553Z,13.20
2018-07-11T00:55:47.602Z,13.20
2018-07-11T00:56:53.142Z,13.20
2018-07-11T00:58:10.087Z,13.20
2018-07-11T00:59:23.090Z,13.20
2018-07-11T01:00:28.733Z,13.20
2018-07-11T01:01:34.785Z,13.10
2018-07-11T01:02:40.658Z,13.10
2018-07-11T01:03:55.872Z,13.10
2018-07-11T01:05:01.468Z,13.10
2018-07-11T01:06:07.182Z,13.10
2018-07-11T01:07:12.774Z,13.10
2018-07-11T01:08:18.812Z,13.00
2018-07-11T01:09:24.407Z,13.00
2018-07-11T01:10:30.017Z,13.00
2018-07-11T01:11:36.882Z,12.90
2018-07-11T01:12:42.395Z,12.90
2018-07-11T01:13:48.945Z,12.90
2018-07-11T01:14:54.522Z,12.90
2018-07-11T01:16:00.336Z,13.00
2018-07-11T01:17:10.266Z,13.00
2018-07-11T01:18:17.767Z,13.00
2018-07-11T01:19:23.618Z,13.00
2018-07-11T01:20:29.141Z,13.00
2018-07-11T01:21:35.458Z,12.90
2018-07-11T01:22:40.892Z,13.00
2018-07-11T01:23:46.334Z,13.00
2018-07-11T01:24:51.812Z,12.90
2018-07-11T01:25:57.726Z,12.90
2018-07-11T01:27:03.190Z,12.90
2018-07-11T01:28:09.517Z,12.80
2018-07-11T01:29:15.013Z,12.80
2018-07-11T01:30:20.444Z,12.80
2018-07-11T01:31:26.473Z,12.80
2018-07-11T01:32:31.986Z,12.70
2018-07-11T01:33:37.444Z,12.70
2018-07-11T01:34:42.914Z,12.70
2018-07-11T01:35:48.333Z,12.60
2018-07-11T01:36:53.811Z,12.60
2018-07-11T01:37:59.430Z,12.50
2018-07-11T01:39:05.209Z,12.50
2018-07-11T01:40:10.706Z,12.50
2018-07-11T01:41:16.397Z,12.50
2018-07-11T01:42:21.922Z,12.50
2018-07-11T01:43:27.469Z,12.50
2018-07-11T01:44:33.435Z,12.40
2018-07-11T01:45:38.976Z,12.50
2018-07-11T01:46:48.928Z,12.50
2018-07-11T01:47:54.405Z,12.50
2018-07-11T01:48:59.970Z,12.50
2018-07-11T01:50:05.556Z,12.40
2018-07-11T01:51:11.783Z,12.40
2018-07-11T01:52:34.133Z,12.30
2018-07-11T01:53:39.702Z,12.40
2018-07-11T01:54:45.318Z,12.30
2018-07-11T01:55:50.831Z,12.40
2018-07-11T01:56:56.407Z,12.30
2018-07-11T01:59:07.352Z,12.30
2018-07-11T02:00:12.878Z,12.30
2018-07-11T02:01:18.399Z,12.30
2018-07-11T02:02:26.325Z,12.30
2018-07-11T02:03:31.970Z,12.30
2018-07-11T02:04:40.725Z,12.20
2018-07-11T02:05:46.257Z,12.20
2018-07-11T02:06:51.806Z,12.20
2018-07-11T02:07:57.841Z,12.20
2018-07-11T02:09:03.446Z,12.20
2018-07-11T02:10:09.053Z,12.20
2018-07-11T02:11:14.633Z,12.10
2018-07-11T02:12:20.148Z,12.10
2018-07-11T02:13:26.669Z,12.10
2018-07-11T02:14:32.212Z,12.10
2018-07-11T02:15:37.761Z,12.10
2018-07-11T02:16:43.361Z,12.10
2018-07-11T02:17:48.909Z,12.10
2018-07-11T02:18:54.511Z,12.10
2018-07-11T02:20:00.158Z,12.10
2018-07-11T02:21:07.093Z,12.10
2018-07-11T02:22:13.237Z,12.00
2018-07-11T02:23:18.850Z,12.00
2018-07-11T02:24:25.549Z,12.00
2018-07-11T02:25:31.428Z,12.00
2018-07-11T02:26:37.094Z,12.00
2018-07-11T02:27:42.658Z,12.00
2018-07-11T02:28:48.640Z,12.00
2018-07-11T02:29:54.149Z,12.10
2018-07-11T02:32:05.181Z,12.00
2018-07-11T02:33:10.819Z,12.10
2018-07-11T02:34:16.421Z,12.00
2018-07-11T02:35:21.917Z,12.10
2018-07-11T02:36:27.398Z,12.00
2018-07-11T02:37:33.004Z,12.00
2018-07-11T02:38:38.499Z,12.00
2018-07-11T02:39:43.937Z,12.00
2018-07-11T02:40:49.412Z,12.00
2018-07-11T02:41:54.843Z,12.00
2018-07-11T02:43:00.371Z,12.00
2018-07-11T02:44:06.179Z,12.00
2018-07-11T02:45:11.728Z,12.00
2018-07-11T02:46:17.285Z,12.00
2018-07-11T02:47:27.879Z,12.00
2018-07-11T02:48:33.477Z,12.00
2018-07-11T02:49:38.993Z,12.00
2018-07-11T02:50:44.590Z,12.00
2018-07-11T02:51:50.130Z,12.00
2018-07-11T02:52:55.657Z,12.00
2018-07-11T02:54:01.198Z,12.00
2018-07-11T02:55:06.894Z,12.00
2018-07-11T02:56:12.461Z,12.00
2018-07-11T02:57:18.024Z,12.00
2018-07-11T02:58:23.605Z,12.00
2018-07-11T02:59:29.090Z,12.00
2018-07-11T03:00:34.622Z,12.00
2018-07-11T03:01:40.084Z,11.90
2018-07-11T03:02:45.625Z,12.00
2018-07-11T03:03:51.100Z,12.00
2018-07-11T03:04:56.618Z,11.90
2018-07-11T03:06:02.138Z,11.90
2018-07-11T03:07:09.389Z,11.90
2018-07-11T03:08:16.619Z,11.90
2018-07-11T03:09:22.109Z,11.90
2018-07-11T03:10:27.649Z,11.90
2018-07-11T03:11:33.148Z,11.90
2018-07-11T03:12:38.727Z,11.90
2018-07-11T03:13:44.240Z,11.90
2018-07-11T03:14:52.312Z,11.90
2018-07-11T03:15:57.785Z,11.90
2018-07-11T03:17:03.250Z,11.90
2018-07-11T03:18:08.848Z,11.90
2018-07-11T03:19:14.347Z,11.90
2018-07-11T03:20:19.947Z,11.90
2018-07-11T03:21:25.506Z,12.00
2018-07-11T03:22:31.055Z,11.90
2018-07-11T03:23:36.561Z,11.90
2018-07-11T03:24:42.536Z,11.90
2018-07-11T03:25:48.155Z,11.90
2018-07-11T03:26:54.024Z,11.90
2018-07-11T03:27:59.451Z,11.80
2018-07-11T03:29:04.935Z,11.80
2018-07-11T03:30:10.506Z,11.80
2018-07-11T03:31:16.044Z,11.80
2018-07-11T03:32:21.548Z,11.90
2018-07-11T03:33:27.029Z,11.90
2018-07-11T03:34:32.582Z,12.00
2018-07-11T03:35:38.059Z,11.90
2018-07-11T03:36:43.573Z,11.90
2018-07-11T03:37:49.115Z,11.90
2018-07-11T03:38:54.680Z,11.90
2018-07-11T03:40:00.181Z,11.90
2018-07-11T03:41:05.658Z,11.90
2018-07-11T03:42:11.222Z,11.90
2018-07-11T03:43:16.666Z,11.90
2018-07-11T03:44:22.152Z,11.90
2018-07-11T03:45:27.693Z,11.90
2018-07-11T03:46:33.209Z,11.90
2018-07-11T03:47:39.052Z,12.00
2018-07-11T03:48:44.517Z,11.90
2018-07-11T03:49:49.941Z,11.90
2018-07-11T03:50:55.513Z,11.90
2018-07-11T03:52:01.037Z,11.90
2018-07-11T03:53:06.638Z,12.00
2018-07-11T03:54:12.080Z,12.00
2018-07-11T03:55:17.538Z,11.90
2018-07-11T03:56:23.154Z,11.90
2018-07-11T03:57:28.590Z,12.00
2018-07-11T03:58:34.057Z,12.00
2018-07-11T03:59:40.557Z,12.00
2018-07-11T04:00:46.090Z,12.10
2018-07-11T04:01:51.617Z,12.10
2018-07-11T04:02:57.605Z,12.10
2018-07-11T04:04:03.089Z,12.30
2018-07-11T04:05:08.590Z,12.30
2018-07-11T04:06:14.007Z,12.30
2018-07-11T04:08:24.620Z,12.30
2018-07-11T04:09:30.100Z,12.30
2018-07-11T04:10:35.542Z,12.40
2018-07-11T04:11:40.974Z,12.50
2018-07-11T04:12:46.501Z,12.60
2018-07-11T04:13:52.044Z,12.80
2018-07-11T04:14:57.517Z,13.00
2018-07-11T04:16:03.025Z,13.10
2018-07-11T04:17:08.468Z,13.40
2018-07-11T04:18:21.154Z,13.70
2018-07-11T04:19:26.595Z,13.90
2018-07-11T04:20:32.018Z,14.10
2018-07-11T04:21:37.819Z,14.40
2018-07-11T04:22:43.279Z,14.60
2018-07-11T04:23:48.898Z,14.80
2018-07-11T04:24:54.382Z,14.90
2018-07-11T04:26:00.262Z,15.00
2018-07-11T04:27:08.508Z,15.20
2018-07-11T04:28:14.030Z,15.20
2018-07-11T04:29:19.656Z,15.10
2018-07-11T04:30:25.210Z,15.20
2018-07-11T04:31:30.750Z,15.20
2018-07-11T04:32:36.618Z,15.40
2018-07-11T04:33:42.194Z,15.50
2018-07-11T04:34:47.743Z,15.70
2018-07-11T04:35:54.351Z,15.80
2018-07-11T04:37:00.034Z,16.00
2018-07-11T04:38:05.834Z,15.90
2018-07-11T04:39:11.720Z,15.90
2018-07-11T04:40:17.268Z,15.90
2018-07-11T04:41:22.953Z,15.90
2018-07-11T04:42:28.541Z,15.80
2018-07-11T04:43:34.290Z,15.70
2018-07-11T04:44:39.844Z,15.70
2018-07-11T04:45:46.847Z,15.60
2018-07-11T04:46:52.390Z,15.60
2018-07-11T04:47:57.886Z,15.60
2018-07-11T04:49:03.733Z,15.60
2018-07-11T04:50:09.286Z,15.60
2018-07-11T04:51:14.854Z,15.70
2018-07-11T04:52:20.502Z,15.70
2018-07-11T04:53:28.626Z,15.90
2018-07-11T04:54:34.229Z,16.10
2018-07-11T04:55:42.702Z,16.30
2018-07-11T04:56:48.455Z,16.30
2018-07-11T04:57:53.894Z,16.40
2018-07-11T04:58:59.407Z,16.60
2018-07-11T05:00:04.892Z,16.60
2018-07-11T05:01:10.754Z,16.70
2018-07-11T05:02:16.293Z,16.70
2018-07-11T05:03:21.908Z,16.80
2018-07-11T05:04:27.701Z,16.80
2018-07-11T05:05:33.184Z,16.80
2018-07-11T05:06:38.646Z,16.80
2018-07-11T05:07:44.041Z,16.80
2018-07-11T05:08:49.473Z,16.60
2018-07-11T05:09:54.873Z,16.40
2018-07-11T05:11:00.390Z,16.30
2018-07-11T05:12:05.861Z,16.20
2018-07-11T05:13:11.326Z,16.10
2018-07-11T05:14:16.777Z,16.10
2018-07-11T05:15:22.208Z,16.00
2018-07-11T05:16:27.714Z,15.90
2018-07-11T05:17:33.666Z,15.90
2018-07-11T05:18:39.080Z,15.70
2018-07-11T05:19:44.605Z,15.70
2018-07-11T05:20:50.053Z,15.80
2018-07-11T05:21:55.541Z,15.80
2018-07-11T05:23:01.378Z,15.80
2018-07-11T05:24:06.806Z,15.90
2018-07-11T05:25:12.250Z,15.90
2018-07-11T05:26:17.685Z,15.90
2018-07-11T05:27:23.105Z,16.00
2018-07-11T05:28:28.545Z,16.10
2018-07-11T05:29:34.014Z,16.20
2018-07-11T05:30:39.491Z,16.30
2018-07-11T05:31:44.922Z,16.30
2018-07-11T05:32:50.358Z,16.50
2018-07-11T05:33:55.798Z,16.50
2018-07-11T05:35:01.209Z,16.70
2018-07-11T05:36:06.611Z,16.70
2018-07-11T05:37:12.154Z,16.80
2018-07-11T05:38:17.574Z,16.90
2018-07-11T05:39:22.994Z,16.80
2018-07-11T05:40:28.436Z,17.00
2018-07-11T05:41:33.942Z,17.00
2018-07-11T05:42:39.397Z,17.10
2018-07-11T05:43:44.838Z,17.00
2018-07-11T05:44:50.278Z,17.10
2018-07-11T05:45:55.724Z,17.20
2018-07-11T05:47:06.674Z,17.20
2018-07-11T05:48:12.280Z,17.20
2018-07-11T05:49:17.786Z,17.20
2018-07-11T05:50:23.250Z,17.30
2018-07-11T05:51:28.657Z,17.40
2018-07-11T05:52:34.104Z,17.50
2018-07-11T05:53:39.649Z,17.60
2018-07-11T05:54:45.087Z,17.60
2018-07-11T05:55:50.599Z,17.60
2018-07-11T05:56:55.991Z,17.60
2018-07-11T05:58:01.436Z,17.70
2018-07-11T05:59:07.076Z,17.70
2018-07-11T06:00:12.870Z,17.60
2018-07-11T06:01:18.379Z,17.60
2018-07-11T06:02:24.264Z,17.50
2018-07-11T06:03:29.706Z,17.60
2018-07-11T06:04:35.184Z,17.60
2018-07-11T06:06:45.632Z,17.70
2018-07-11T06:07:51.210Z,17.80
2018-07-11T06:08:56.764Z,17.90
2018-07-11T06:10:02.266Z,18.00
2018-07-11T06:11:21.171Z,18.10
2018-07-11T06:12:26.638Z,18.00
2018-07-11T06:13:32.105Z,18.00
2018-07-11T06:14:37.595Z,18.00
2018-07-11T06:15:43.046Z,18.00
2018-07-11T06:16:48.478Z,18.00
2018-07-11T06:17:53.975Z,18.10
2018-07-11T06:18:59.445Z,18.20
2018-07-11T06:20:04.967Z,18.30
2018-07-11T06:21:10.396Z,18.30
2018-07-11T06:22:15.810Z,18.30
2018-07-11T06:23:21.256Z,18.40
2018-07-11T06:24:26.792Z,18.40
2018-07-11T06:25:32.306Z,18.40
2018-07-11T06:26:37.753Z,18.60
2018-07-11T06:27:43.141Z,18.70
2018-07-11T06:28:48.790Z,18.70
2018-07-11T06:29:54.304Z,18.80
2018-07-11T06:30:59.781Z,18.90
2018-07-11T06:32:05.686Z,18.90
2018-07-11T06:33:11.118Z,18.90
2018-07-11T06:34:16.607Z,18.80
2018-07-11T06:35:22.066Z,18.60
2018-07-11T06:36:27.537Z,18.40
2018-07-11T06:37:33.310Z,18.30
2018-07-11T06:38:39.210Z,18.20
2018-07-11T06:39:44.642Z,18.10
2018-07-11T06:40:50.470Z,17.90
2018-07-11T06:41:56.078Z,17.70
2018-07-11T06:43:01.548Z,17.50
2018-07-11T06:44:07.059Z,17.30
2018-07-11T06:45:12.513Z,17.00
2018-07-11T06:46:18.027Z,16.80
2018-07-11T06:47:27.553Z,16.60
2018-07-11T06:48:33.086Z,16.40
2018-07-11T06:49:38.536Z,16.20
2018-07-11T06:50:44.133Z,16.20
2018-07-11T06:51:49.589Z,16.20
2018-07-11T06:52:55.065Z,16.10
2018-07-11T06:54:00.537Z,16.10
2018-07-11T06:55:06.145Z,16.10
2018-07-11T06:56:11.640Z,16.00
2018-07-11T06:57:17.075Z,16.00
2018-07-11T06:58:22.651Z,16.10
2018-07-11T06:59:28.126Z,16.20
2018-07-11T07:00:33.553Z,16.10
2018-07-11T07:01:39.310Z,16.20
2018-07-11T07:02:44.729Z,16.40
2018-07-11T07:03:50.200Z,16.50
2018-07-11T07:04:55.669Z,16.60
2018-07-11T07:06:01.154Z,16.80
2018-07-11T07:07:06.708Z,17.00
2018-07-11T07:08:12.294Z,17.20
2018-07-11T07:09:18.200Z,17.40
2018-07-11T07:10:23.741Z,17.70
2018-07-11T07:11:29.162Z,17.70
2018-07-11T07:12:34.613Z,17.80
2018-07-11T07:13:40.101Z,17.90
2018-07-11T07:14:45.653Z,18.10
2018-07-11T07:15:51.153Z,18.20
2018-07-11T07:16:56.595Z,18.10
2018-07-11T07:18:02.036Z,18.20
2018-07-11T07:19:07.458Z,18.20
2018-07-11T07:20:13.102Z,18.10
2018-07-11T07:21:18.933Z,18.20
2018-07-11T07:22:24.426Z,18.20
2018-07-11T07:23:29.973Z,18.20
2018-07-11T07:24:35.394Z,18.30
2018-07-11T07:25:40.913Z,18.10
2018-07-11T07:26:46.432Z,18.20
2018-07-11T07:27:52.048Z,18.20
2018-07-11T07:28:57.565Z,18.10
2018-07-11T07:30:03.105Z,18.10
2018-07-11T07:31:08.557Z,18.20
2018-07-11T07:32:14.021Z,18.20
2018-07-11T07:33:19.510Z,18.30
2018-07-11T07:34:24.993Z,18.40
2018-07-11T07:35:30.410Z,18.50
2018-07-11T07:36:35.834Z,18.70
2018-07-11T07:37:41.339Z,18.70
2018-07-11T07:38:46.901Z,18.90
2018-07-11T07:39:52.365Z,18.90
2018-07-11T07:40:57.845Z,18.90
2018-07-11T07:42:03.395Z,18.90
2018-07-11T07:43:08.810Z,18.90
2018-07-11T07:44:14.383Z,19.00
2018-07-11T07:45:19.914Z,19.00
2018-07-11T07:46:25.428Z,19.00
2018-07-11T07:47:36.020Z,19.00
2018-07-11T07:48:41.705Z,19.00
2018-07-11T07:49:47.285Z,18.90
2018-07-11T07:50:52.857Z,18.90
2018-07-11T07:51:58.789Z,18.80
2018-07-11T07:53:04.286Z,18.80
2018-07-11T07:54:09.857Z,18.90
2018-07-11T07:55:15.933Z,19.00
2018-07-11T07:56:21.477Z,19.00
2018-07-11T07:57:27.969Z,19.10
2018-07-11T07:58:33.558Z,19.20
2018-07-11T07:59:39.097Z,19.30
2018-07-11T08:00:44.585Z,19.40
2018-07-11T08:01:50.146Z,19.40
2018-07-11T08:02:55.690Z,19.50
2018-07-11T08:04:01.240Z,19.70
2018-07-11T08:05:08.625Z,19.90
2018-07-11T08:06:14.204Z,20.00
2018-07-11T08:07:19.751Z,20.10
2018-07-11T08:08:25.161Z,20.30
2018-07-11T08:09:30.590Z,20.40
2018-07-11T08:10:36.037Z,20.60
2018-07-11T08:11:41.662Z,20.80
2018-07-11T08:12:47.101Z,20.90
2018-07-11T08:13:52.798Z,21.00
2018-07-11T08:14:58.431Z,21.00
2018-07-11T08:16:03.878Z,21.00
2018-07-11T08:17:09.426Z,20.80
2018-07-11T08:19:19.996Z,20.70
2018-07-11T08:20:25.443Z,20.70
2018-07-11T08:21:30.940Z,20.50
2018-07-11T08:23:22.537Z,20.50
2018-07-11T08:24:44.841Z,20.40
2018-07-11T08:26:07.369Z,20.30
2018-07-11T08:28:00.925Z,20.20
2018-07-11T08:31:25.942Z,20.10
2018-07-11T08:32:54.291Z,20.00
2018-07-11T08:37:21.912Z,19.70
2018-07-11T08:38:45.171Z,19.50
2018-07-11T08:42:10.929Z,19.30
2018-07-11T08:45:35.749Z,19.20
2018-07-11T08:46:57.469Z,19.20
2018-07-11T08:48:30.713Z,19.30
2018-07-11T08:50:04.084Z,19.30
2018-07-11T08:53:52.201Z,19.40
2018-07-11T08:56:15.670Z,19.50
2018-07-11T08:59:59.773Z,19.90
2018-07-11T09:01:24.540Z,20.20
2018-07-11T09:03:50.781Z,20.40
2018-07-11T09:05:11.958Z,20.50
2018-07-11T09:08:44.344Z,20.60
2018-07-11T09:10:05.590Z,20.50
2018-07-11T09:12:12.596Z,20.30
2018-07-11T09:13:34.953Z,20.20
2018-07-11T09:16:01.156Z,20.10
2018-07-11T09:17:23.518Z,20.10
2018-07-11T09:21:21.625Z,20.30
2018-07-11T09:22:44.774Z,20.50
2018-07-11T09:24:37.142Z,20.90
2018-07-11T09:25:42.621Z,21.10
2018-07-11T09:26:48.210Z,20.90
2018-07-11T09:27:53.697Z,20.80
2018-07-11T09:28:59.240Z,20.70
2018-07-11T09:30:04.752Z,20.90
2018-07-11T09:31:10.226Z,20.90
2018-07-11T09:32:16.094Z,20.90
2018-07-11T09:33:21.690Z,20.90
2018-07-11T09:34:27.105Z,21.00
2018-07-11T09:35:32.659Z,21.20
2018-07-11T09:36:38.201Z,21.30
2018-07-11T09:37:43.788Z,21.50
2018-07-11T09:38:49.262Z,21.50
2018-07-11T09:39:54.747Z,21.70
2018-07-11T09:42:05.506Z,21.90
2018-07-11T09:43:11.176Z,21.80
2018-07-11T09:44:16.907Z,21.80
2018-07-11T09:45:22.659Z,22.00
2018-07-11T09:46:28.133Z,21.90
2018-07-11T09:47:33.790Z,22.10
2018-07-11T09:48:39.325Z,22.30
2018-07-11T09:49:44.853Z,22.20
2018-07-11T09:50:50.563Z,22.30
2018-07-11T09:51:56.606Z,22.30
2018-07-11T09:53:02.118Z,22.20
2018-07-11T09:54:07.870Z,22.20
2018-07-11T09:55:13.725Z,22.40
2018-07-11T09:56:19.295Z,22.50
2018-07-11T09:57:26.578Z,22.50
2018-07-11T09:58:32.788Z,22.30
2018-07-11T09:59:38.863Z,22.20
2018-07-11T10:00:49.716Z,22.20
2018-07-11T10:01:55.250Z,22.30
2018-07-11T10:03:00.782Z,22.30
2018-07-11T10:04:06.359Z,22.40
2018-07-11T10:05:11.918Z,22.50
2018-07-11T10:06:17.457Z,22.40
2018-07-11T10:07:24.307Z,22.20
2018-07-11T10:08:29.783Z,21.90
2018-07-11T10:09:35.306Z,21.90
2018-07-11T10:10:40.804Z,21.80
2018-07-11T10:11:46.293Z,21.80
2018-07-11T10:12:51.797Z,21.70
2018-07-11T10:13:57.260Z,21.60
2018-07-11T10:15:02.762Z,21.30
2018-07-11T10:16:08.305Z,21.30
2018-07-11T10:17:13.827Z,21.30
2018-07-11T10:18:19.232Z,21.40
2018-07-11T10:19:24.680Z,21.20
2018-07-11T10:20:30.245Z,21.30
2018-07-11T10:21:35.936Z,21.30
2018-07-11T10:22:41.590Z,21.40
2018-07-11T10:23:47.090Z,21.40
2018-07-11T10:24:52.607Z,21.60
2018-07-11T10:25:58.106Z,21.50
2018-07-11T10:27:03.582Z,21.40
2018-07-11T10:28:18.781Z,21.50
2018-07-11T10:29:24.271Z,21.60
2018-07-11T10:30:29.711Z,21.70
2018-07-11T10:31:35.183Z,21.80
2018-07-11T10:32:40.717Z,21.80
2018-07-11T10:33:46.202Z,21.90
2018-07-11T10:34:51.697Z,22.00
2018-07-11T10:35:57.158Z,22.10
2018-07-11T10:37:02.817Z,22.30
2018-07-11T10:38:08.569Z,22.40
2018-07-11T10:39:14.455Z,22.60
2018-07-11T10:40:20.040Z,22.70
2018-07-11T10:42:31.026Z,22.70
2018-07-11T10:43:36.580Z,22.80
2018-07-11T10:44:42.109Z,22.90
2018-07-11T10:45:47.573Z,22.90
2018-07-11T10:46:57.117Z,23.00
2018-07-11T10:48:02.699Z,22.90
2018-07-11T10:49:08.219Z,22.90
2018-07-11T10:50:13.761Z,22.90
2018-07-11T10:51:19.359Z,22.70
2018-07-11T10:52:24.857Z,22.60
2018-07-11T10:53:30.734Z,22.40
2018-07-11T10:54:36.240Z,22.50
2018-07-11T10:55:41.781Z,22.60
2018-07-11T10:56:47.351Z,22.80
2018-07-11T10:57:52.976Z,23.10
2018-07-11T10:58:58.421Z,23.20
2018-07-11T11:00:04.245Z,23.40
2018-07-11T11:01:09.708Z,23.50
2018-07-11T11:02:21.819Z,23.30
2018-07-11T11:03:29.454Z,23.30
2018-07-11T11:04:34.935Z,23.40
2018-07-11T11:05:40.494Z,23.20
2018-07-11T11:06:45.982Z,22.90
2018-07-11T11:07:52.472Z,22.60
2018-07-11T11:08:57.890Z,22.60
2018-07-11T11:10:03.467Z,22.60
2018-07-11T11:11:10.078Z,22.80
2018-07-11T11:12:15.661Z,23.00
2018-07-11T11:13:21.898Z,23.20
2018-07-11T11:14:27.425Z,23.50
2018-07-11T11:15:32.869Z,23.60
2018-07-11T11:16:39.024Z,23.60
2018-07-11T11:17:44.526Z,23.60
2018-07-11T11:18:50.083Z,23.60
2018-07-11T11:19:55.571Z,23.60
2018-07-11T11:21:01.183Z,23.50
2018-07-11T11:22:06.755Z,23.40
2018-07-11T11:23:12.173Z,23.50
2018-07-11T11:24:17.687Z,23.60
2018-07-11T11:25:23.159Z,23.60
2018-07-11T11:26:28.572Z,23.60
2018-07-11T11:27:34.075Z,23.70
2018-07-11T11:28:39.534Z,23.80
2018-07-11T11:29:44.993Z,23.90
2018-07-11T11:30:50.513Z,23.80
2018-07-11T11:31:56.006Z,23.60
2018-07-11T11:33:01.503Z,23.30
2018-07-11T11:34:06.933Z,23.00
2018-07-11T11:35:12.483Z,22.80
2018-07-11T11:36:18.057Z,22.70
2018-07-11T11:37:23.547Z,22.50
2018-07-11T11:38:29.050Z,22.30
2018-07-11T11:39:34.527Z,22.20
2018-07-11T11:40:40.034Z,22.20
2018-07-11T11:41:46.098Z,22.10
2018-07-11T11:42:51.615Z,22.00
2018-07-11T11:43:57.081Z,22.00
2018-07-11T11:45:02.625Z,21.90
2018-07-11T11:46:08.510Z,21.90
2018-07-11T11:47:14.032Z,21.90
2018-07-11T11:48:19.561Z,21.80
2018-07-11T11:49:25.197Z,21.60
2018-07-11T11:50:31.091Z,21.30
2018-07-11T11:51:36.682Z,21.10
2018-07-11T11:52:42.194Z,21.00
2018-07-11T11:53:47.676Z,20.80
2018-07-11T11:54:53.775Z,20.90
2018-07-11T11:55:59.274Z,20.90
2018-07-11T11:57:05.005Z,21.00
2018-07-11T11:58:10.886Z,21.10
2018-07-11T11:59:16.318Z,21.20
2018-07-11T12:00:21.798Z,21.20
2018-07-11T12:01:27.243Z,21.20
2018-07-11T12:02:32.709Z,21.20
2018-07-11T12:03:38.608Z,21.30
2018-07-11T12:04:44.066Z,21.30
2018-07-11T12:05:49.523Z,21.40
2018-07-11T12:06:54.965Z,21.30
2018-07-11T12:08:00.401Z,21.30
2018-07-11T12:10:11.101Z,21.50
2018-07-11T12:11:16.589Z,21.50
2018-07-11T12:12:22.121Z,21.60
2018-07-11T12:13:28.223Z,21.60
2018-07-11T12:14:35.404Z,21.70
2018-07-11T12:15:40.867Z,21.70
2018-07-11T12:16:46.729Z,21.80
2018-07-11T12:17:52.485Z,21.80
2018-07-11T12:18:58.274Z,21.80
2018-07-11T12:20:04.165Z,21.80
2018-07-11T12:21:09.600Z,21.70
2018-07-11T12:22:23.885Z,21.60
2018-07-11T12:23:29.850Z,21.60
2018-07-11T12:24:35.534Z,21.60
2018-07-11T12:25:56.549Z,21.60
2018-07-11T12:27:02.402Z,21.60
2018-07-11T12:28:07.872Z,21.70
2018-07-11T12:29:13.341Z,21.70
2018-07-11T12:30:18.814Z,21.70
2018-07-11T12:31:24.308Z,21.70
2018-07-11T12:32:29.806Z,21.80
2018-07-11T12:33:35.447Z,21.80
2018-07-11T12:34:40.934Z,21.90
2018-07-11T12:35:46.886Z,21.90
2018-07-11T12:36:54.873Z,21.90
2018-07-11T12:38:00.533Z,21.90
2018-07-11T12:39:06.081Z,21.90
2018-07-11T12:40:11.360Z,22.00
2018-07-11T12:41:16.961Z,22.10
2018-07-11T12:42:22.445Z,22.10
2018-07-11T12:43:28.350Z,22.10
2018-07-11T12:44:33.874Z,22.10
2018-07-11T12:45:39.373Z,22.10
2018-07-11T12:46:45.710Z,22.10
2018-07-11T12:49:06.545Z,22.10
2018-07-11T12:50:12.109Z,22.10
2018-07-11T12:51:17.546Z,22.10
2018-07-11T12:52:23.118Z,22.00
2018-07-11T12:53:29.173Z,22.00
2018-07-11T12:54:34.683Z,22.00
2018-07-11T12:55:40.175Z,22.10
2018-07-11T12:56:45.704Z,22.20
2018-07-11T12:57:51.222Z,22.40
2018-07-11T12:58:57.438Z,22.50
2018-07-11T13:00:02.992Z,22.50
2018-07-11T13:01:08.813Z,22.70
2018-07-11T13:02:14.693Z,22.70
2018-07-11T13:03:20.242Z,22.80
2018-07-11T13:04:25.782Z,22.90
2018-07-11T13:05:31.548Z,22.90
2018-07-11T13:06:38.519Z,22.90
2018-07-11T13:07:44.046Z,23.00
2018-07-11T13:08:49.613Z,22.90
2018-07-11T13:09:55.168Z,22.80
2018-07-11T13:11:00.644Z,22.80
2018-07-11T13:12:06.809Z,22.80
2018-07-11T13:13:12.235Z,22.90
2018-07-11T13:14:17.670Z,23.00
2018-07-11T13:15:23.173Z,22.80
2018-07-11T13:16:28.634Z,22.80
2018-07-11T13:17:34.150Z,22.70
2018-07-11T13:18:39.608Z,22.60
2018-07-11T13:19:45.110Z,22.60
2018-07-11T13:20:50.582Z,22.50
2018-07-11T13:21:56.081Z,22.30
2018-07-11T13:23:01.658Z,22.30
2018-07-11T13:24:07.239Z,22.30
2018-07-11T13:25:12.719Z,22.10
2018-07-11T13:26:18.173Z,22.20
2018-07-11T13:27:23.723Z,22.20
2018-07-11T13:28:29.232Z,22.20
2018-07-11T13:29:34.751Z,22.10
2018-07-11T13:30:40.227Z,22.10
2018-07-11T13:31:45.686Z,21.90
2018-07-11T13:32:51.210Z,21.90
2018-07-11T13:33:57.202Z,21.80
2018-07-11T13:35:02.749Z,21.70
2018-07-11T13:36:08.301Z,21.80
2018-07-11T13:37:13.794Z,21.80
2018-07-11T13:38:19.412Z,21.80
2018-07-11T13:39:25.013Z,21.80
2018-07-11T13:40:30.559Z,21.80
2018-07-11T13:41:36.000Z,21.80
2018-07-11T13:42:41.427Z,21.70
2018-07-11T13:43:46.918Z,21.70
2018-07-11T13:44:52.347Z,21.60
2018-07-11T13:45:57.800Z,21.50
2018-07-11T13:47:07.326Z,21.50
2018-07-11T13:48:12.824Z,21.50
2018-07-11T13:49:18.253Z,21.40
2018-07-11T13:50:24.094Z,21.30
2018-07-11T13:51:29.629Z,21.20
2018-07-11T13:52:35.162Z,21.20
2018-07-11T13:53:40.699Z,21.20
2018-07-11T13:54:46.479Z,21.20
2018-07-11T13:55:52.141Z,21.20
2018-07-11T13:56:57.913Z,21.10
2018-07-11T13:58:03.771Z,21.20
2018-07-11T13:59:09.428Z,21.20
2018-07-11T14:00:15.490Z,21.20
2018-07-11T14:01:21.381Z,21.20
2018-07-11T14:02:26.885Z,21.20
2018-07-11T14:03:32.345Z,21.20
2018-07-11T14:04:37.798Z,21.20
2018-07-11T14:05:43.297Z,21.20
2018-07-11T14:06:48.881Z,21.10
2018-07-11T14:07:54.321Z,21.10
2018-07-11T14:09:06.134Z,20.90
2018-07-11T14:10:12.011Z,20.80
2018-07-11T14:11:17.657Z,20.80
2018-07-11T14:12:24.044Z,20.80
2018-07-11T14:13:29.719Z,20.80
2018-07-11T14:14:35.830Z,20.90
2018-07-11T14:15:41.309Z,20.90
2018-07-11T14:16:48.230Z,21.00
2018-07-11T14:17:54.079Z,21.10
2018-07-11T14:18:59.520Z,21.10
2018-07-11T14:20:06.359Z,21.20
2018-07-11T14:21:11.828Z,21.20
2018-07-11T14:22:17.327Z,21.40
2018-07-11T14:23:36.037Z,21.40
2018-07-11T14:24:41.571Z,21.50
2018-07-11T14:25:48.119Z,21.70
2018-07-11T14:26:55.039Z,21.80
2018-07-11T14:28:00.663Z,21.90
2018-07-11T14:29:06.180Z,22.20
2018-07-11T14:30:12.039Z,22.30
2018-07-11T14:31:28.814Z,22.40
2018-07-11T14:32:34.378Z,22.40
2018-07-11T14:33:40.028Z,22.40
2018-07-11T14:34:45.487Z,22.50
2018-07-11T14:35:50.954Z,22.40
2018-07-11T14:36:56.468Z,22.40
2018-07-11T14:38:01.919Z,22.30
2018-07-11T14:39:08.984Z,22.30
2018-07-11T14:40:14.865Z,22.20
2018-07-11T14:41:20.470Z,22.20
2018-07-11T14:42:25.974Z,22.30
2018-07-11T14:43:31.517Z,22.20
2018-07-11T14:44:37.090Z,22.30
2018-07-11T14:45:42.713Z,22.40
2018-07-11T14:46:48.156Z,22.50
2018-07-11T14:47:57.492Z,22.50
2018-07-11T14:49:03.193Z,22.50
2018-07-11T14:50:08.707Z,22.70
2018-07-11T14:51:14.276Z,22.80